Thunder radar more information blitzortung!


Löydät sääaseman tiedot myös:

European Weather Network

Finland Weather Exchange

Weather Underground

AWEKAS



Weather Underground säähistoriasivu

Päivittäin yhteenveto Tou 30, 2017 Yksiköt:  Englantilaiset    Metriset   Molemmat
« Edellinen Päivä
Seuraava Päivä »
Päivittäin Viikoittain Kuukausittain Vuosittain Mukautettu
  Korkea: Matala: Keskiarvo:
Lämpötila: TemperatureC °F -0.7 °F 6.9 °F
Kastepiste: DewpointC °F -1.9 °F 2.8 °F
Kosteus: Humidity % 49 % 76 %
Tuulen nopeus: WindSpeedKMH mph 0.0 mph 0.4 mph
Tuulenpuuska: WindSpeedGustKMH mph - -
Tuuli:- - SSW
Ilmanpaine: PressurehPa in 1000.9 in -
Sade: 1.0 in    
Historical Graphs
 
 
Taulukkotiedot Tou 30, 2017
Aika Lämpötila Kastepiste Ilmanpaine Tuuli Tuulen nopeus Tuulenpuuska Kosteus Sademäärä (tunneittain)
TemperatureC °F DewpointC °F PressurehPa in Calm     Humidity % HourlyPrecipMM in
00:00 2.6 °F 0.3 °F 1010.7 in Calm     85 % 0.0 in
00:15 2.3 °F 0.2 °F 1011.1 in Calm     86 % 0.0 in
00:30 1.9 °F 0.0 °F 1011.1 in Calm     87 % 0.0 in
00:45 1.8 °F 0.0 °F 1011.1 in Calm     88 % 0.0 in
01:00 1.3 °F -0.4 °F 1011.1 in Calm     88 % 0.0 in
01:15 1.0 °F -0.6 °F 1011.1 in Calm     89 % 0.0 in
01:30 0.8 °F -0.7 °F 1011.4 in Calm     90 % 0.0 in
01:45 0.6 °F -0.9 °F 1011.4 in Calm     90 % 0.0 in
02:00 0.3 °F -1.0 °F 1011.4 in Calm     91 % 0.0 in
02:15 0.3 °F -1.0 °F 1011.4 in Calm     91 % 0.0 in
02:30 0.0 °F -1.3 °F 1011.4 in Calm     91 % 0.0 in
02:45 -0.3 °F -1.6 °F 1011.4 in Calm     91 % 0.0 in
03:00 -0.5 °F -1.6 °F 1011.4 in Calm     92 % 0.0 in
03:15 -0.5 °F -1.5 °F 1011.4 in Calm     93 % 0.0 in
03:30 -0.4 °F -1.4 °F 1011.4 in Calm     93 % 0.0 in
03:45 -0.7 °F -1.9 °F 1011.4 in Calm     92 % 0.0 in
04:00 -0.4 °F -1.2 °F 1011.4 in Calm     94 % 0.0 in
04:15 -0.2 °F -1.2 °F 1011.1 in Calm     93 % 0.0 in
04:30 0.0 °F -0.9 °F 1011.1 in Calm     94 % 0.0 in
04:45 0.4 °F -0.4 °F 1011.1 in Calm     94 % 0.0 in
05:00 1.0 °F 0.1 °F 1011.1 in Calm     94 % 0.0 in
05:15 1.5 °F 0.6 °F 1011.1 in Calm     94 % 0.0 in
05:30 1.9 °F 1.0 °F 1011.1 in Calm   1.6 mph 94 % 0.0 in
05:45 2.3 °F 1.3 °F 1010.7 in Calm     93 % 0.0 in
06:00 2.6 °F 1.3 °F 1010.7 in Calm   3.2 mph 91 % 0.0 in
06:15 3.0 °F 1.4 °F 1010.7 in Calm     89 % 0.0 in
06:30 3.4 °F 1.4 °F 1010.7 in Calm   3.2 mph 87 % 0.0 in
06:45 3.7 °F 1.4 °F 1010.7 in Calm     85 % 0.0 in
07:00 4.1 °F 1.8 °F 1010.7 in Calm     85 % 0.0 in
07:15 4.5 °F 1.9 °F 1010.4 in Calm   1.6 mph 83 % 0.0 in
07:30 4.9 °F 2.2 °F 1010.4 in Calm     83 % 0.0 in
07:45 5.5 °F 2.5 °F 1010.4 in Calm   1.6 mph 81 % 0.0 in
08:00 5.9 °F 2.6 °F 1010.4 in Calm     79 % 0.0 in
08:15 6.4 °F 2.6 °F 1010.4 in Calm   3.2 mph 77 % 0.0 in
08:30 6.8 °F 3.0 °F 1010.4 in Calm     77 % 0.0 in
08:45 7.4 °F 2.9 °F 1010.4 in Calm   4.8 mph 73 % 0.0 in
09:00 8.2 °F 2.2 °F 1010.0 in South 3.2 mph 9.7 mph 66 % 0.0 in
09:15 8.7 °F 2.2 °F 1010.0 in SSE 3.2 mph 11.3 mph 64 % 0.0 in
09:30 8.9 °F 2.3 °F 1010.0 in SSW 3.2 mph 9.7 mph 63 % 0.0 in
09:45 9.7 °F 1.6 °F 1010.0 in SSW 4.8 mph 9.7 mph 57 % 0.0 in
10:00 10.3 °F 2.2 °F 1009.7 in SSW 4.8 mph 12.9 mph 57 % 0.0 in
10:15 11.0 °F 1.5 °F 1009.7 in South 8.0 mph 16.1 mph 52 % 0.0 in
10:30 11.0 °F 1.2 °F 1009.7 in South 6.4 mph 16.1 mph 51 % 0.0 in
10:45 10.8 °F 1.6 °F 1009.7 in SSW 4.8 mph 16.1 mph 53 % 0.0 in
11:00 10.9 °F 2.0 °F 1009.4 in Calm     54 % 0.0 in
11:15 11.3 °F 2.8 °F 1009.4 in Calm     56 % 0.0 in
11:30 11.9 °F 2.1 °F 1009.4 in Calm     51 % 0.0 in
11:45 12.4 °F 2.2 °F 1009.0 in Calm     50 % 0.0 in
12:00 12.4 °F 2.5 °F 1009.0 in Calm     51 % 0.0 in
12:15 12.7 °F 2.3 °F 1009.0 in Calm     49 % 0.0 in
12:30 12.9 °F 2.8 °F 1009.0 in Calm     50 % 0.0 in
12:45 12.7 °F 3.1 °F 1009.0 in Calm     52 % 0.0 in
13:00 12.8 °F 3.5 °F 1009.0 in Calm     53 % 0.0 in
13:15 12.3 °F 3.0 °F 1008.7 in Calm     53 % 0.0 in
13:30 12.0 °F 3.2 °F 1008.7 in Calm     55 % 0.0 in
13:45 12.1 °F 3.3 °F 1008.4 in Calm     55 % 0.0 in
14:00 12.1 °F 3.3 °F 1008.4 in Calm     55 % 0.0 in
14:15 12.3 °F 3.7 °F 1008.0 in Calm     56 % 0.0 in
14:30 12.3 °F 3.0 °F 1007.7 in Calm     53 % 0.0 in
14:45 12.3 °F 3.7 °F 1007.7 in Calm     56 % 0.0 in
15:00 12.4 °F 3.8 °F 1007.7 in Calm     56 % 0.0 in
15:15 12.4 °F 4.2 °F 1007.3 in Calm     57 % 0.0 in
15:30 11.9 °F 4.2 °F 1007.0 in Calm     59 % 0.0 in
15:45 12.9 °F 2.4 °F 1007.0 in Calm     49 % 0.0 in
16:15 12.1 °F 1.7 °F 1007.0 in Calm     49 % 0.0 in
16:30 11.5 °F 2.0 °F 1006.7 in Calm     52 % 0.0 in
16:45 11.2 °F 3.0 °F 1006.7 in Calm     57 % 0.0 in
17:00 10.2 °F 5.1 °F 1006.7 in Calm     71 % 0.3 in
17:15 9.3 °F 5.6 °F 1006.3 in Calm     78 % 0.3 in
17:30 8.9 °F 5.9 °F 1006.3 in Calm     81 % 0.5 in
17:45 8.8 °F 5.2 °F 1006.0 in Calm     78 % 0.5 in
18:00 8.9 °F 5.5 °F 1006.0 in Calm     79 % 0.3 in
18:15 8.7 °F 5.4 °F 1005.6 in Calm     80 % 0.3 in
18:30 8.5 °F 5.9 °F 1005.3 in Calm     84 % 0.3 in
18:45 8.3 °F 6.1 °F 1005.3 in Calm     86 % 0.3 in
19:00 8.3 °F 6.2 °F 1005.3 in Calm     87 % 0.3 in
19:15 8.3 °F 6.3 °F 1005.0 in Calm     87 % 0.3 in
19:30 8.2 °F 6.5 °F 1005.0 in Calm     89 % 0.3 in
19:45 7.8 °F 6.3 °F 1004.6 in Calm     90 % 0.3 in
20:00 7.8 °F 6.4 °F 1004.3 in Calm     91 % 0.3 in
20:15 7.8 °F 6.6 °F 1004.3 in Calm     92 % 0.3 in
20:45 7.9 °F 6.7 °F 1003.6 in Calm     92 % 0.0 in
21:00 8.0 °F 6.8 °F 1003.6 in Calm     92 % 0.0 in
21:15 8.0 °F 6.8 °F 1003.3 in Calm     92 % 0.0 in
21:30 8.0 °F 6.8 °F 1002.9 in Calm     92 % 0.0 in
21:45 7.9 °F 6.7 °F 1002.9 in Calm     92 % 0.0 in
22:00 7.8 °F 6.6 °F 1002.6 in Calm     92 % 0.0 in
22:15 7.8 °F 6.6 °F 1002.6 in Calm     92 % 0.0 in
22:30 7.7 °F 6.5 °F 1002.3 in Calm     92 % 0.0 in
22:45 7.7 °F 6.7 °F 1001.9 in Calm     93 % 0.0 in
23:00 7.7 °F 6.8 °F 1001.9 in Calm     94 % 0.0 in
23:15 7.6 °F 6.7 °F 1001.6 in Calm     94 % 0.3 in
23:30 7.6 °F 6.7 °F 1001.2 in Calm     94 % 0.3 in
23:45 7.6 °F 6.8 °F 1000.9 in Calm     95 % 0.3 in
Esan sääasema
Terveisin Weather Underground - 3 mb

Alkuperäinen skripti  Jim McMurry - jmcmurry@mwt.net Sovitettu myös templatelle  Wim van der Kuil - Leuven-Template.eu

Laitteet joita käytämme:

Sääasema
Davis VP2

Sääasemaohjelma
Cumulus

Sääaseman tietokone
Asus EeePC

Palveluntarjoaja
Suncomet

Davis VP2

Cumulus

Asus EeePC

Suncomet